Saint Croix, VI

2:57 AM AST on September 02, 2014 (GMT -0400)
Judith Hill | Change Station
CLOSE
Current Station
Personal Weather Station
Location: Christiansted, ST. CROIX
Elevation: 26 ft
Nearby Weather Stations

Elev 26 ft 17.77 °N, 64.74 °W | Updated 1 second ago

Clear
Clear
79.5 °F
Feels Like 85 °F
N
3.1
Wind Variable Wind from ESE
Gusts 6.0 mph

Today
High -- | Low -- °F
--% Chance of Precip.
Yesterday
High -- | Low -- °F
Precip. -- in
6:04 AM 6:31 PM
Waxing Crescent, 48% visible
Pressure 29.97 in
Visibility 10.0 miles
Clouds Clear
Heat Index 85 °F
Dew Point 77 °F
Humidity 92%
Rainfall 0.00 in
Snow Depth Not available.
UV 0 out of 12
Pollen Not available.
Air Quality Not available.
Flu Activity Not available.
METAR TISX 020653Z AUTO 05005KT 10SM CLR 26/24 A2998 RMK AO2 RAE0555B12E29 SLP149 P0002 T02560244 TSNO

More Conditions Fewer Conditions

Pressure 29.97 in
Visibility 10.0 miles
Clouds Clear
Heat Index 85 °F
Dew Point 77 °F
Humidity 92%
Rainfall 0.00 in
Snow Depth Not available.
UV 0 out of 12
Pollen Not available.
Air Quality Not available.
Flu Activity Not available.
METAR TISX 020653Z AUTO 05005KT 10SM CLR 26/24 A2998 RMK AO2 RAE0555B12E29 SLP149 P0002 T02560244 TSNO

More Conditions Fewer Conditions

10-Day Weather Forecast

Almanac

Astronomy

Sep. 02, 2014 Rise Set
Actual Time 6:04 AM AST 6:31 PM AST
Civil Twilight 5:42 AM AST 6:53 PM AST
Nautical Twilight 5:17 AM AST 7:19 PM AST
Astronomical Twilight 4:51 AM AST 7:45 PM AST
Moon 12:45 PM AST No Moon Set
Length of Visible Light 13h 10m
Length of Day
12h 26m
Tomorrow will be 0m 58s shorter.
Waxing Crescent, 48% of the Moon is Illuminated
Today
Waxing Crescent
Sep 2
First Quarter
Sep 8
Full
Sep 15
Last Quarter
Sep 24
New

Community

WunderPhotos

Upload Photos

1,749,589 photos uploaded!

WunderBlogs® & News

Nearby

Snow Depth

Station Depth Elevation
No new snow has been reported.

Earthquake Activity

City Distance Mag. Time & Date
No recent earthquake activity has been reported nearby.
Minimum magnitude displayed is 2.5.

Coastal Water Temperatures

Place Temperature
Lime Tree Bay, VI 84.9 °F
Christiansted Harbor, Virgin Islands 84.9 °F
Magueyes Islands, PR 84.9 °F
Yabucoa Harbor, PR 82.9 °F
Esperanza, PR 84.0 °F
Mayaguez, PR 84.0 °F
Charlotte Amalie, VI 84.9 °F
San Juan, PR 84.9 °F

Nearby Weather Stations